createdAt,value
2022-08-03T00:02:21.120Z,100.00
2022-08-03T00:04:49.788Z,100.00
2022-08-03T00:07:18.684Z,100.00
2022-08-03T00:09:48.880Z,100.00
2022-08-03T00:12:18.175Z,100.00
2022-08-03T00:14:46.964Z,100.00
2022-08-03T00:17:15.726Z,100.00
2022-08-03T00:19:44.404Z,100.00
2022-08-03T00:22:13.043Z,100.00
2022-08-03T00:24:41.815Z,100.00
2022-08-03T00:27:11.703Z,100.00
2022-08-03T00:29:59.912Z,100.00
2022-08-03T00:32:29.051Z,100.00
2022-08-03T00:34:59.089Z,100.00
2022-08-03T00:37:40.789Z,100.00
2022-08-03T00:40:13.513Z,100.00
2022-08-03T00:42:55.837Z,100.00
2022-08-03T00:45:27.581Z,100.00
2022-08-03T00:47:57.060Z,100.00
2022-08-03T00:50:28.667Z,100.00
2022-08-03T00:52:59.595Z,100.00
2022-08-03T00:55:28.964Z,100.00
2022-08-03T00:57:59.787Z,100.00
2022-08-03T01:00:29.823Z,100.00
2022-08-03T01:02:58.474Z,100.00
2022-08-03T01:05:27.159Z,100.00
2022-08-03T01:08:07.011Z,100.00
2022-08-03T01:10:50.016Z,100.00
2022-08-03T01:14:01.604Z,100.00
2022-08-03T01:16:27.965Z,100.00
2022-08-03T01:19:31.243Z,100.00
2022-08-03T01:22:19.109Z,100.00
2022-08-03T01:25:02.399Z,100.00
2022-08-03T01:27:47.740Z,100.00
2022-08-03T01:30:18.184Z,100.00
2022-08-03T01:33:00.952Z,100.00
2022-08-03T01:35:39.277Z,100.00
2022-08-03T01:38:13.288Z,100.00
2022-08-03T01:40:45.496Z,100.00
2022-08-03T01:43:58.887Z,100.00
2022-08-03T01:46:12.700Z,100.00
2022-08-03T01:48:45.908Z,100.00
2022-08-03T01:51:19.362Z,100.00
2022-08-03T01:53:51.114Z,100.00
2022-08-03T01:56:23.244Z,100.00
2022-08-03T01:58:55.292Z,100.00
2022-08-03T02:01:28.250Z,100.00
2022-08-03T02:04:20.482Z,100.00
2022-08-03T02:06:59.910Z,100.00
2022-08-03T02:09:32.654Z,100.00
2022-08-03T02:12:02.646Z,100.00
2022-08-03T02:14:32.797Z,100.00
2022-08-03T02:17:04.238Z,100.00
2022-08-03T02:19:35.869Z,100.00
2022-08-03T02:22:06.679Z,100.00
2022-08-03T02:24:35.511Z,100.00
2022-08-03T02:27:11.652Z,100.00
2022-08-03T02:29:43.532Z,100.00
2022-08-03T02:32:21.479Z,100.00
2022-08-03T02:34:55.853Z,100.00
2022-08-03T02:37:31.951Z,100.00
2022-08-03T02:40:05.544Z,100.00
2022-08-03T02:42:37.031Z,100.00
2022-08-03T02:45:13.963Z,100.00
2022-08-03T02:47:53.387Z,100.00
2022-08-03T02:50:26.274Z,100.00
2022-08-03T02:52:58.137Z,100.00
2022-08-03T02:55:28.368Z,100.00
2022-08-03T02:58:01.445Z,100.00
2022-08-03T03:00:32.892Z,100.00
2022-08-03T03:03:05.378Z,100.00
2022-08-03T03:05:52.835Z,100.00
2022-08-03T03:08:28.929Z,100.00
2022-08-03T03:11:00.500Z,100.00
2022-08-03T03:13:31.380Z,100.00
2022-08-03T03:16:04.286Z,100.00
2022-08-03T03:18:35.815Z,100.00
2022-08-03T03:21:06.667Z,100.00
2022-08-03T03:23:39.483Z,100.00
2022-08-03T03:26:09.238Z,100.00
2022-08-03T03:28:38.596Z,100.00
2022-08-03T03:31:09.109Z,100.00
2022-08-03T03:33:40.477Z,100.00
2022-08-03T03:36:09.570Z,100.00
2022-08-03T03:38:38.581Z,100.00
2022-08-03T03:41:07.621Z,100.00
2022-08-03T03:43:36.607Z,100.00
2022-08-03T03:46:06.110Z,100.00
2022-08-03T03:48:35.379Z,100.00
2022-08-03T03:51:07.286Z,100.00
2022-08-03T03:53:36.733Z,100.00
2022-08-03T03:56:05.844Z,100.00
2022-08-03T03:58:34.586Z,100.00
2022-08-03T04:01:03.410Z,100.00
2022-08-03T04:03:32.102Z,100.00
2022-08-03T04:06:18.225Z,100.00
2022-08-03T04:09:14.269Z,100.00
2022-08-03T04:11:49.987Z,100.00
2022-08-03T04:14:24.158Z,100.00
2022-08-03T04:16:58.339Z,100.00
2022-08-03T04:19:36.915Z,100.00
2022-08-03T04:22:12.401Z,100.00
2022-08-03T04:24:50.784Z,100.00
2022-08-03T04:27:26.692Z,100.00
2022-08-03T04:29:58.758Z,100.00
2022-08-03T04:32:30.271Z,100.00
2022-08-03T04:34:59.404Z,100.00
2022-08-03T04:37:39.520Z,100.00
2022-08-03T04:40:15.609Z,100.00
2022-08-03T04:42:45.720Z,100.00
2022-08-03T04:45:17.144Z,100.00
2022-08-03T04:47:46.435Z,100.00
2022-08-03T04:50:19.505Z,100.00
2022-08-03T04:53:07.798Z,100.00
2022-08-03T04:55:37.786Z,100.00
2022-08-03T04:58:07.248Z,100.00
2022-08-03T05:00:37.423Z,100.00
2022-08-03T05:03:20.048Z,100.00
2022-08-03T05:06:10.040Z,100.00
2022-08-03T05:08:47.170Z,100.00
2022-08-03T05:11:19.655Z,100.00
2022-08-03T05:13:49.215Z,100.00
2022-08-03T05:16:18.049Z,100.00
2022-08-03T05:18:47.077Z,100.00
2022-08-03T05:21:16.911Z,100.00
2022-08-03T05:23:45.777Z,100.00
2022-08-03T05:26:14.615Z,100.00
2022-08-03T05:28:50.561Z,100.00
2022-08-03T05:31:20.756Z,100.00
2022-08-03T05:33:49.652Z,100.00
2022-08-03T05:36:18.300Z,100.00
2022-08-03T05:38:47.115Z,98.71
2022-08-03T05:41:22.229Z,89.49
2022-08-03T05:43:56.038Z,86.96
2022-08-03T05:46:24.893Z,92.39
2022-08-03T05:48:54.009Z,97.65
2022-08-03T05:51:22.735Z,99.75
2022-08-03T05:53:51.285Z,92.94
2022-08-03T05:56:25.160Z,90.38
2022-08-03T05:58:55.253Z,95.77
2022-08-03T06:01:24.153Z,99.57
2022-08-03T06:03:53.754Z,98.46
2022-08-03T06:06:23.099Z,99.56
2022-08-03T06:08:52.065Z,100.00
2022-08-03T06:11:20.596Z,90.53
2022-08-03T06:13:49.177Z,90.25
2022-08-03T06:16:19.289Z,89.33
2022-08-03T06:18:47.912Z,86.77
2022-08-03T06:21:17.130Z,90.33
2022-08-03T06:23:54.193Z,77.14
2022-08-03T06:26:28.911Z,80.63
2022-08-03T06:28:58.002Z,86.67
2022-08-03T06:31:33.334Z,87.54
2022-08-03T06:34:32.872Z,81.92
2022-08-03T06:37:01.769Z,79.17
2022-08-03T06:39:31.487Z,78.22
2022-08-03T06:42:00.175Z,74.79
2022-08-03T06:44:28.784Z,74.53
2022-08-03T06:46:58.994Z,72.18
2022-08-03T06:49:27.847Z,69.43
2022-08-03T06:52:04.538Z,70.86
2022-08-03T06:54:37.097Z,71.53
2022-08-03T06:57:08.359Z,71.84
2022-08-03T07:00:10.006Z,72.80
2022-08-03T07:02:28.218Z,70.35
2022-08-03T07:04:58.648Z,73.14
2022-08-03T07:07:27.366Z,73.69
2022-08-03T07:09:57.819Z,70.67
2022-08-03T07:12:29.455Z,68.39
2022-08-03T07:15:02.342Z,63.93
2022-08-03T07:17:36.774Z,69.32
2022-08-03T07:20:08.691Z,66.51
2022-08-03T07:22:37.955Z,64.49
2022-08-03T07:25:08.969Z,62.64
2022-08-03T07:27:38.474Z,57.15
2022-08-03T07:30:09.512Z,62.01
2022-08-03T07:32:49.744Z,61.17
2022-08-03T07:35:24.795Z,61.42
2022-08-03T07:37:55.136Z,57.45
2022-08-03T07:40:25.117Z,58.06
2022-08-03T07:43:02.402Z,58.14
2022-08-03T07:45:32.058Z,53.36
2022-08-03T07:48:02.278Z,52.23
2022-08-03T07:50:31.172Z,54.63
2022-08-03T07:52:59.907Z,51.03
2022-08-03T07:55:28.814Z,48.57
2022-08-03T07:58:07.657Z,49.72
2022-08-03T08:00:37.183Z,39.38
2022-08-03T08:03:07.185Z,38.31
2022-08-03T08:05:35.952Z,38.45
2022-08-03T08:08:05.887Z,41.56
2022-08-03T08:10:35.142Z,41.00
2022-08-03T08:13:04.182Z,44.29
2022-08-03T08:15:33.137Z,45.08
2022-08-03T08:18:03.491Z,44.45
2022-08-03T08:20:38.145Z,46.02
2022-08-03T08:23:42.884Z,49.20
2022-08-03T08:25:58.613Z,48.19
2022-08-03T08:28:32.907Z,50.18
2022-08-03T08:31:02.708Z,49.97
2022-08-03T08:33:48.326Z,52.34
2022-08-03T08:36:22.831Z,59.42
2022-08-03T08:38:51.816Z,60.41
2022-08-03T08:41:20.592Z,58.33
2022-08-03T08:43:49.241Z,55.42
2022-08-03T08:46:23.795Z,48.84
2022-08-03T08:48:55.368Z,44.52
2022-08-03T08:51:54.847Z,47.50
2022-08-03T08:54:24.835Z,40.96
2022-08-03T08:56:59.325Z,44.32
2022-08-03T08:59:48.346Z,40.21
2022-08-03T09:02:17.220Z,38.69
2022-08-03T09:04:48.836Z,34.25
2022-08-03T09:07:20.545Z,33.65
2022-08-03T09:10:11.368Z,32.17
2022-08-03T09:12:42.611Z,32.64
2022-08-03T09:15:24.550Z,36.08
2022-08-03T09:17:56.499Z,37.76
2022-08-03T09:20:28.671Z,39.52
2022-08-03T09:23:01.466Z,38.58
2022-08-03T09:25:33.560Z,31.13
2022-08-03T09:28:52.874Z,35.93
2022-08-03T09:31:03.156Z,32.20
2022-08-03T09:33:36.145Z,29.82
2022-08-03T09:36:05.668Z,27.82
2022-08-03T09:38:35.893Z,31.86
2022-08-03T09:41:18.248Z,34.58
2022-08-03T09:43:48.175Z,37.37
2022-08-03T09:46:16.869Z,37.05
2022-08-03T09:48:46.027Z,38.16
2022-08-03T09:52:31.285Z,37.62
2022-08-03T09:54:12.651Z,37.01
2022-08-03T09:56:47.670Z,37.04
2022-08-03T09:59:27.573Z,37.96
2022-08-03T10:01:58.095Z,32.32
2022-08-03T10:04:27.935Z,31.51
2022-08-03T10:07:06.493Z,31.52
2022-08-03T10:09:37.556Z,26.91
2022-08-03T10:12:11.375Z,31.00
2022-08-03T10:14:41.975Z,29.57
2022-08-03T10:17:11.244Z,33.66
2022-08-03T10:19:41.130Z,34.45
2022-08-03T10:22:15.065Z,34.63
2022-08-03T10:24:54.773Z,34.78
2022-08-03T10:27:25.480Z,36.80
2022-08-03T10:29:57.318Z,37.13
2022-08-03T10:32:32.669Z,34.12
2022-08-03T10:35:20.096Z,34.66
2022-08-03T10:37:57.302Z,31.12
2022-08-03T10:40:48.627Z,32.28
2022-08-03T10:43:23.018Z,33.63
2022-08-03T10:45:53.148Z,29.60
2022-08-03T10:48:23.211Z,33.07
2022-08-03T10:50:52.702Z,33.75
2022-08-03T10:53:37.462Z,31.64
2022-08-03T10:56:50.403Z,32.41
2022-08-03T10:59:27.704Z,30.88
2022-08-03T11:02:00.676Z,32.21
2022-08-03T11:04:30.878Z,32.45
2022-08-03T11:07:23.604Z,33.49
2022-08-03T11:09:54.851Z,32.55
2022-08-03T11:12:31.081Z,33.90
2022-08-03T11:15:03.235Z,33.27
2022-08-03T11:17:33.792Z,33.00
2022-08-03T11:20:15.899Z,37.18
2022-08-03T11:22:54.505Z,38.01
2022-08-03T11:25:54.403Z,36.86
2022-08-03T11:28:30.615Z,40.25
2022-08-03T11:31:50.392Z,38.79
2022-08-03T11:34:19.830Z,36.71
2022-08-03T11:37:29.929Z,40.66
2022-08-03T11:40:02.758Z,41.79
2022-08-03T11:42:47.054Z,40.78
2022-08-03T11:45:16.254Z,42.07
2022-08-03T11:47:51.092Z,42.73
2022-08-03T11:50:21.470Z,41.08
2022-08-03T11:52:51.777Z,38.54
2022-08-03T11:55:22.175Z,41.80
2022-08-03T11:59:10.904Z,41.50
2022-08-03T12:00:40.638Z,39.12
2022-08-03T12:03:16.294Z,41.68
2022-08-03T12:05:51.536Z,39.81
2022-08-03T12:08:34.072Z,38.24
2022-08-03T12:11:06.820Z,40.38
2022-08-03T12:14:44.209Z,45.46
2022-08-03T12:16:30.558Z,42.73
2022-08-03T12:19:03.157Z,40.44
2022-08-03T12:21:32.288Z,40.54
2022-08-03T12:24:03.454Z,43.67
2022-08-03T12:26:54.531Z,43.25
2022-08-03T12:29:29.200Z,40.36
2022-08-03T12:31:58.402Z,43.15
2022-08-03T12:34:47.619Z,43.19
2022-08-03T12:37:28.665Z,42.94
2022-08-03T12:40:09.763Z,40.03
2022-08-03T12:42:41.342Z,40.98
2022-08-03T12:45:24.647Z,41.44
2022-08-03T12:47:55.627Z,40.03
2022-08-03T12:50:34.302Z,43.11
2022-08-03T12:53:07.873Z,41.29
2022-08-03T12:55:57.954Z,39.54
2022-08-03T12:58:34.331Z,38.78
2022-08-03T13:01:10.102Z,40.50
2022-08-03T13:03:46.045Z,41.58
2022-08-03T13:06:23.770Z,41.54
2022-08-03T13:09:05.855Z,40.31
2022-08-03T13:11:55.479Z,44.66
2022-08-03T13:14:24.133Z,40.79
2022-08-03T13:16:52.795Z,39.21
2022-08-03T13:19:21.367Z,39.76
2022-08-03T13:21:53.689Z,38.78
2022-08-03T13:24:33.969Z,43.47
2022-08-03T13:28:01.908Z,42.28
2022-08-03T13:29:54.236Z,42.67
2022-08-03T13:32:24.235Z,44.90
2022-08-03T13:34:53.027Z,45.28
2022-08-03T13:37:23.512Z,41.02
2022-08-03T13:39:59.246Z,40.49
2022-08-03T13:42:31.580Z,38.79
2022-08-03T13:45:01.959Z,41.63
2022-08-03T13:47:30.912Z,42.60
2022-08-03T13:50:02.457Z,40.96
2022-08-03T13:52:36.450Z,38.98
2022-08-03T13:55:08.597Z,41.02
2022-08-03T13:58:04.906Z,42.88
2022-08-03T14:00:29.330Z,42.26
2022-08-03T14:03:06.514Z,41.28
2022-08-03T14:05:41.145Z,39.95
2022-08-03T14:08:11.880Z,41.29
2022-08-03T14:10:43.836Z,38.09
2022-08-03T14:13:17.698Z,40.57
2022-08-03T14:15:49.471Z,40.76
2022-08-03T14:18:28.492Z,39.22
2022-08-03T14:21:03.392Z,37.13
2022-08-03T14:23:37.728Z,40.50
2022-08-03T14:26:07.766Z,42.30
2022-08-03T14:28:37.194Z,39.15
2022-08-03T14:31:08.462Z,41.07
2022-08-03T14:33:55.166Z,43.25
2022-08-03T14:36:23.863Z,39.92
2022-08-03T14:38:56.119Z,38.86
2022-08-03T14:41:27.444Z,40.26
2022-08-03T14:44:02.132Z,42.98
2022-08-03T14:46:32.521Z,40.61
2022-08-03T14:50:30.564Z,40.18
2022-08-03T14:51:53.329Z,39.82
2022-08-03T14:54:24.178Z,41.20
2022-08-03T14:56:53.301Z,44.95
2022-08-03T14:59:21.887Z,42.02
2022-08-03T15:02:04.950Z,41.47
2022-08-03T15:04:35.882Z,40.57
2022-08-03T15:07:04.698Z,40.05
2022-08-03T15:09:35.554Z,40.61
2022-08-03T15:12:05.500Z,39.64
2022-08-03T15:14:34.952Z,39.84
2022-08-03T15:17:06.996Z,39.37
2022-08-03T15:20:00.847Z,42.61
2022-08-03T15:22:25.008Z,41.03
2022-08-03T15:24:56.294Z,40.92
2022-08-03T15:27:24.999Z,39.80
2022-08-03T15:30:04.859Z,39.21
2022-08-03T15:32:38.384Z,41.42
2022-08-03T15:35:07.794Z,42.12
2022-08-03T15:37:36.456Z,40.14
2022-08-03T15:40:08.106Z,43.09
2022-08-03T15:42:36.866Z,42.51
2022-08-03T15:45:06.442Z,42.38
2022-08-03T15:47:35.043Z,41.73
2022-08-03T15:50:09.472Z,42.74
2022-08-03T15:52:38.485Z,46.52
2022-08-03T15:55:10.615Z,47.80
2022-08-03T15:59:11.070Z,49.10
2022-08-03T16:00:34.023Z,53.51
2022-08-03T16:03:02.899Z,54.55
2022-08-03T16:05:31.637Z,55.51
2022-08-03T16:08:04.082Z,58.01
2022-08-03T16:10:35.561Z,61.80
2022-08-03T16:13:04.420Z,61.18
2022-08-03T16:15:33.301Z,60.27
2022-08-03T16:18:07.607Z,59.31
2022-08-03T16:20:36.230Z,59.10
2022-08-03T16:23:11.427Z,57.95
2022-08-03T16:25:44.485Z,57.02
2022-08-03T16:28:18.913Z,55.01
2022-08-03T16:30:48.342Z,54.05
2022-08-03T16:33:18.098Z,51.02
2022-08-03T16:35:49.627Z,46.17
2022-08-03T16:38:19.554Z,50.05
2022-08-03T16:40:51.965Z,52.86
2022-08-03T16:43:23.147Z,54.83
2022-08-03T16:45:52.801Z,55.48
2022-08-03T16:48:21.915Z,57.45
2022-08-03T16:50:50.587Z,60.03
2022-08-03T16:53:33.721Z,61.68
2022-08-03T16:56:10.865Z,61.94
2022-08-03T16:58:42.314Z,64.33
2022-08-03T17:01:22.477Z,64.61
2022-08-03T17:04:01.532Z,63.80
2022-08-03T17:06:34.125Z,65.08
2022-08-03T17:09:08.699Z,60.67
2022-08-03T17:11:44.117Z,68.67
2022-08-03T17:14:21.781Z,68.61
2022-08-03T17:16:54.540Z,68.33
2022-08-03T17:19:26.363Z,69.44
2022-08-03T17:22:04.116Z,70.93
2022-08-03T17:24:41.016Z,67.09
2022-08-03T17:28:41.354Z,69.18
2022-08-03T17:30:12.029Z,70.33
2022-08-03T17:32:56.545Z,72.69
2022-08-03T17:35:34.684Z,70.81
2022-08-03T17:38:11.975Z,70.75
2022-08-03T17:40:43.099Z,71.67
2022-08-03T17:44:13.678Z,72.77
2022-08-03T17:46:10.978Z,70.63
2022-08-03T17:48:42.256Z,71.83
2022-08-03T17:51:17.953Z,70.45
2022-08-03T17:54:05.203Z,72.86
2022-08-03T17:56:58.245Z,72.09
2022-08-03T17:59:51.890Z,72.49
2022-08-03T18:02:54.868Z,72.30
2022-08-03T18:06:12.713Z,72.79
2022-08-03T18:08:26.857Z,74.14
2022-08-03T18:11:15.115Z,75.78
2022-08-03T18:13:58.183Z,76.10
2022-08-03T18:16:35.292Z,76.73
2022-08-03T18:19:13.477Z,76.58
2022-08-03T18:22:02.844Z,77.46
2022-08-03T18:24:33.213Z,76.81
2022-08-03T18:27:03.301Z,75.94
2022-08-03T18:29:33.291Z,78.39
2022-08-03T18:32:13.550Z,78.39
2022-08-03T18:34:53.188Z,79.03
2022-08-03T18:37:26.211Z,78.69
2022-08-03T18:39:58.498Z,79.06
2022-08-03T18:42:28.854Z,78.67
2022-08-03T18:45:15.010Z,78.88
2022-08-03T18:48:06.152Z,78.74
2022-08-03T18:50:49.745Z,79.11
2022-08-03T18:54:03.049Z,80.44
2022-08-03T18:56:32.478Z,81.52
2022-08-03T18:59:10.859Z,81.64
2022-08-03T19:01:58.026Z,82.73
2022-08-03T19:04:35.420Z,82.74
2022-08-03T19:07:08.547Z,83.31
2022-08-03T19:09:48.152Z,83.73
2022-08-03T19:12:30.789Z,84.19
2022-08-03T19:15:12.780Z,82.46
2022-08-03T19:17:52.730Z,81.53
2022-08-03T19:20:26.517Z,82.04
2022-08-03T19:23:00.411Z,83.83
2022-08-03T19:25:35.124Z,83.00
2022-08-03T19:28:07.220Z,82.49
2022-08-03T19:30:39.889Z,83.60
2022-08-03T19:33:11.458Z,84.52
2022-08-03T19:35:51.806Z,86.54
2022-08-03T19:38:27.543Z,84.91
2022-08-03T19:41:03.244Z,83.82
2022-08-03T19:43:49.499Z,84.10
2022-08-03T19:46:30.505Z,84.58
2022-08-03T19:49:14.595Z,86.17
2022-08-03T19:52:01.483Z,87.48
2022-08-03T19:54:52.817Z,88.12
2022-08-03T19:57:25.765Z,89.11
2022-08-03T19:59:56.772Z,88.25
2022-08-03T20:02:29.705Z,88.45
2022-08-03T20:04:59.988Z,89.53
2022-08-03T20:07:33.005Z,90.18
2022-08-03T20:10:05.321Z,89.03
2022-08-03T20:12:39.243Z,89.36
2022-08-03T20:15:10.632Z,89.94
2022-08-03T20:17:55.343Z,90.20
2022-08-03T20:20:29.857Z,91.02
2022-08-03T20:23:04.035Z,89.71
2022-08-03T20:25:48.787Z,89.16
2022-08-03T20:28:36.171Z,89.84
2022-08-03T20:31:32.602Z,90.93
2022-08-03T20:34:06.312Z,90.68
2022-08-03T20:36:35.060Z,91.02
2022-08-03T20:39:07.540Z,92.26
2022-08-03T20:41:37.044Z,91.51
2022-08-03T20:44:07.077Z,91.86
2022-08-03T20:46:46.714Z,92.70
2022-08-03T20:49:25.313Z,94.12
2022-08-03T20:51:55.320Z,92.43
2022-08-03T20:54:29.469Z,92.98
2022-08-03T20:57:04.174Z,92.66
2022-08-03T20:59:47.671Z,92.88
2022-08-03T21:02:29.117Z,93.57
2022-08-03T21:05:03.424Z,93.84
2022-08-03T21:08:03.703Z,96.29
2022-08-03T21:10:38.242Z,93.56
2022-08-03T21:13:18.550Z,93.88
2022-08-03T21:16:11.893Z,94.18
2022-08-03T21:18:47.209Z,93.76
2022-08-03T21:21:20.013Z,95.23
2022-08-03T21:23:53.858Z,94.22
2022-08-03T21:26:28.556Z,94.50
2022-08-03T21:28:58.522Z,92.35
2022-08-03T21:31:28.094Z,89.48
2022-08-03T21:33:59.487Z,90.72
2022-08-03T21:36:32.167Z,91.51
2022-08-03T21:39:01.964Z,88.96
2022-08-03T21:41:33.663Z,89.82
2022-08-03T21:44:05.152Z,88.73
2022-08-03T21:46:39.313Z,88.66
2022-08-03T21:50:07.621Z,87.90
2022-08-03T21:52:06.759Z,88.16
2022-08-03T21:54:38.550Z,88.36
2022-08-03T21:57:20.024Z,86.90
2022-08-03T21:59:56.652Z,86.91
2022-08-03T22:02:31.518Z,86.88
2022-08-03T22:05:05.152Z,88.27
2022-08-03T22:07:35.943Z,86.64
2022-08-03T22:10:07.727Z,86.17
2022-08-03T22:12:38.678Z,85.97
2022-08-03T22:15:11.713Z,85.62
2022-08-03T22:17:53.655Z,84.18
2022-08-03T22:20:24.926Z,83.62
2022-08-03T22:22:57.711Z,83.55
2022-08-03T22:25:31.572Z,83.11
2022-08-03T22:28:05.162Z,82.83
2022-08-03T22:30:34.613Z,81.80
2022-08-03T22:33:11.723Z,80.26
2022-08-03T22:35:47.828Z,81.14
2022-08-03T22:38:18.733Z,80.31
2022-08-03T22:40:51.157Z,80.70
2022-08-03T22:43:25.683Z,80.81
2022-08-03T22:46:10.239Z,82.26
2022-08-03T22:48:41.955Z,82.57
2022-08-03T22:51:11.489Z,82.84
2022-08-03T22:53:41.562Z,82.84
2022-08-03T22:56:11.027Z,83.32
2022-08-03T22:58:40.970Z,82.99
2022-08-03T23:01:13.714Z,83.00
2022-08-03T23:03:58.693Z,83.40
2022-08-03T23:06:36.558Z,83.64
2022-08-03T23:09:09.303Z,83.14
2022-08-03T23:11:45.533Z,83.69
2022-08-03T23:14:20.409Z,85.65
2022-08-03T23:16:51.989Z,85.88
2022-08-03T23:19:25.133Z,85.73
2022-08-03T23:22:02.400Z,86.13
2022-08-03T23:24:36.892Z,85.21
2022-08-03T23:27:08.263Z,87.48
2022-08-03T23:29:43.282Z,85.95
2022-08-03T23:32:13.997Z,85.85
2022-08-03T23:35:06.091Z,85.64
2022-08-03T23:38:12.177Z,86.69
2022-08-03T23:40:30.979Z,88.13
2022-08-03T23:43:02.169Z,87.60
2022-08-03T23:45:37.530Z,87.33
2022-08-03T23:48:06.996Z,87.42
2022-08-03T23:50:45.727Z,87.29
2022-08-03T23:53:22.657Z,87.85
2022-08-03T23:56:13.949Z,88.04
2022-08-03T23:58:57.916Z,88.57
